Time;durP1;ratioP1;P1;durP2;ratioP2;P2;SDS_P1;SDS_P2;PMS_P1;PMS_P2;Temp;Humidity;BMP_temperature;BMP_pressure;BME280_temperature;BME280_humidity;BME280_pressure;Samples;Min_cycle;Max_cycle;Signal;HPM_P1;HPM_P2
2024/04/12 04:00:48;;;;;;;1.20;1.10;;;7.80;97.30;;;;;;6259348;21;20546;-87
2024/04/12 04:03:32;;;;;;;23.53;2.67;;;7.80;97.30;;;;;;5305980;26;20475;-88
2024/04/12 04:06:11;;;;;;;2.17;2.00;;;7.70;97.30;;;;;;5324589;26;20287;-85
2024/04/12 04:08:48;;;;;;;1.30;1.20;;;7.80;97.30;;;;;;5280126;27;21137;-85
2024/04/12 04:11:17;;;;;;;1.77;1.67;;;7.80;97.30;;;;;;5280876;26;21089;-86
2024/04/12 04:13:46;;;;;;;1.50;1.47;;;7.80;97.30;;;;;;5308914;26;20478;-86
2024/04/12 04:16:16;;;;;;;1.23;1.13;;;7.80;97.30;;;;;;5308008;26;20518;-87
2024/04/12 04:18:49;;;;;;;2.13;1.37;;;7.80;97.30;;;;;;5308244;26;21032;-87
2024/04/12 04:21:15;;;;;;;4.30;1.50;;;7.80;97.30;;;;;;5321734;26;20481;-87
2024/04/12 04:23:43;;;;;;;1.20;1.10;;;7.70;97.30;;;;;;5319500;26;20485;-86
2024/04/12 04:26:09;;;;;;;1.17;1.13;;;7.70;97.30;;;;;;5311650;26;20477;-89
2024/04/12 04:28:35;;;;;;;2.70;2.60;;;7.70;97.30;;;;;;5318271;26;20869;-87
2024/04/12 04:31:05;;;;;;;2.30;2.10;;;7.70;97.30;;;;;;5342941;26;20239;-87
2024/04/12 04:33:35;;;;;;;2.23;1.00;;;7.70;97.30;;;;;;5331227;26;20485;-86
2024/04/12 04:36:09;;;;;;;2.33;1.60;;;7.70;97.30;;;;;;5313971;26;20463;-86
2024/04/12 04:38:38;;;;;;;1.27;1.17;;;7.70;97.30;;;;;;5306066;26;20540;-86
2024/04/12 04:41:07;;;;;;;1.63;1.50;;;7.80;97.30;;;;;;5313419;26;20522;-87
2024/04/12 04:43:36;;;;;;;2.30;2.10;;;7.80;97.30;;;;;;5317591;26;20469;-86
2024/04/12 04:46:48;;;;;;;2.40;1.87;;;7.80;97.30;;;;;;5329598;26;20471;-86
2024/04/12 04:48:51;;;;;;;9.10;1.73;;;7.90;97.30;;;;;;5303960;26;20925;-88
2024/04/12 04:51:17;;;;;;;1.80;1.70;;;7.90;97.30;;;;;;5336048;26;20553;-85
2024/04/12 04:53:43;;;;;;;2.33;2.17;;;8.00;97.30;;;;;;5319761;26;20469;-86
2024/04/12 04:56:12;;;;;;;1.43;1.33;;;8.00;97.30;;;;;;5328048;26;20235;-89
2024/04/12 04:58:41;;;;;;;1.47;1.00;;;8.00;97.30;;;;;;5332690;26;20473;-87
2024/04/12 05:01:11;;;;;;;1.13;1.03;;;8.00;97.30;;;;;;5341960;26;20545;-87
2024/04/12 05:03:37;;;;;;;2.60;1.43;;;8.10;97.30;;;;;;5321285;26;20551;-86
2024/04/12 05:06:06;;;;;;;10.23;1.73;;;8.10;97.30;;;;;;5338670;26;20462;-87
2024/04/12 05:08:35;;;;;;;1.37;1.27;;;8.20;97.30;;;;;;5322598;26;20526;-86
2024/04/12 05:11:05;;;;;;;1.27;1.17;;;8.20;97.30;;;;;;5321841;26;20475;-86
2024/04/12 05:13:37;;;;;;;2.27;2.03;;;8.30;97.30;;;;;;5310327;26;20479;-86
2024/04/12 05:16:11;;;;;;;1.23;1.13;;;8.30;97.30;;;;;;5308733;26;20471;-86
2024/04/12 05:18:37;;;;;;;1.13;1.03;;;8.30;97.30;;;;;;5323370;26;20467;-88
2024/04/12 05:21:07;;;;;;;1.10;1.00;;;8.40;97.30;;;;;;5308618;26;20523;-87
2024/04/12 05:23:32;;;;;;;1.57;1.47;;;8.40;97.30;;;;;;5330884;26;20281;-87
2024/04/12 05:25:59;;;;;;;9.10;1.53;;;8.50;97.30;;;;;;5314740;26;20479;-91
2024/04/12 05:28:27;;;;;;;1.53;1.43;;;8.50;97.30;;;;;;5307020;26;20667;-88
2024/04/12 05:30:55;;;;;;;1.83;1.60;;;8.60;97.30;;;;;;5319368;26;20470;-88
2024/04/12 05:33:22;;;;;;;1.60;1.50;;;8.60;97.30;;;;;;5327634;26;20457;-89
2024/04/12 05:35:48;;;;;;;3.43;1.80;;;8.70;97.30;;;;;;5317187;26;20538;-86
2024/04/12 05:38:14;;;;;;;3.43;1.30;;;8.80;97.30;;;;;;5326243;26;20493;-86
2024/04/12 05:40:51;;;;;;;1.57;1.47;;;8.80;97.30;;;;;;5327246;26;20285;-87
2024/04/12 05:43:17;;;;;;;2.07;1.50;;;8.90;97.30;;;;;;5314030;26;20236;-87
2024/04/12 05:45:44;;;;;;;1.73;1.67;;;9.10;97.30;;;;;;5328587;26;20457;-88
2024/04/12 05:48:15;;;;;;;2.20;1.70;;;9.20;97.30;;;;;;5306437;26;20506;-89
2024/04/12 05:50:50;;;;;;;2.70;1.73;;;9.30;97.30;;;;;;5317242;26;20529;-86
2024/04/12 05:53:18;;;;;;;3.47;2.57;;;9.40;97.30;;;;;;5322778;26;20481;-88
2024/04/12 05:55:52;;;;;;;4.00;1.67;;;9.50;97.30;;;;;;5307913;26;20599;-89
2024/04/12 05:58:19;;;;;;;3.43;2.37;;;9.60;97.30;;;;;;5321747;26;20888;-89
2024/04/12 06:00:48;;;;;;;1.60;1.50;;;9.70;97.30;;;;;;5322160;26;20482;-86
2024/04/12 06:03:14;;;;;;;1.30;1.20;;;9.90;97.30;;;;;;5323392;26;20864;-87
2024/04/12 06:05:47;;;;;;;4.83;3.10;;;10.00;97.30;;;;;;5307937;26;20467;-89
2024/04/12 06:08:12;;;;;;;1.90;1.80;;;10.10;97.30;;;;;;5307469;26;20482;-87
2024/04/12 06:10:39;;;;;;;17.67;1.73;;;10.20;97.30;;;;;;5316187;26;20525;-88
2024/04/12 06:13:07;;;;;;;1.30;1.20;;;10.30;97.30;;;;;;5329716;26;20234;-86
2024/04/12 06:15:39;;;;;;;6.77;1.90;;;10.40;97.30;;;;;;5327554;26;20469;-87
2024/04/12 06:18:12;;;;;;;3.07;2.30;;;10.50;97.30;;;;;;5313702;26;20467;-88
2024/04/12 06:20:38;;;;;;;1.83;1.73;;;10.50;97.30;;;;;;5331283;26;21008;-87
2024/04/12 06:23:06;;;;;;;2.30;2.10;;;10.60;97.30;;;;;;5322923;26;20595;-87
2024/04/12 06:25:38;;;;;;;4.93;2.90;;;10.60;97.30;;;;;;5308668;26;20844;-86
2024/04/12 06:28:11;;;;;;;1.87;1.87;;;10.60;97.30;;;;;;5302293;26;20552;-86
2024/04/12 06:30:45;;;;;;;2.73;1.70;;;10.70;97.30;;;;;;5307943;26;20577;-87
2024/04/12 06:33:14;;;;;;;1.60;1.50;;;10.70;97.30;;;;;;5307036;26;20471;-86
2024/04/12 06:35:46;;;;;;;7.60;2.50;;;10.70;97.30;;;;;;5318639;26;20549;-86
2024/04/12 06:38:17;;;;;;;1.10;1.00;;;10.80;97.30;;;;;;5311737;26;20463;-88
2024/04/12 06:40:52;;;;;;;1.37;1.10;;;10.80;97.30;;;;;;5318178;26;20524;-86
2024/04/12 06:43:20;;;;;;;1.10;1.00;;;11.00;97.30;;;;;;5343732;26;21042;-87
2024/04/12 06:46:13;;;;;;;4.40;1.97;;;11.10;97.30;;;;;;5332797;26;20475;-88
2024/04/12 06:48:42;;;;;;;2.13;1.40;;;11.40;97.30;;;;;;5299415;26;20518;-88
2024/04/12 06:51:11;;;;;;;2.80;1.83;;;11.70;97.30;;;;;;5337696;26;21070;-86
2024/04/12 06:53:44;;;;;;;2.93;2.73;;;12.00;97.30;;;;;;5333611;26;20869;-88
2024/04/12 06:56:15;;;;;;;2.50;2.37;;;12.20;97.30;;;;;;5312793;26;20524;-88
2024/04/12 06:58:43;;;;;;;2.60;2.43;;;12.40;97.30;;;;;;5334720;26;20892;-88
2024/04/12 07:01:10;;;;;;;3.90;1.70;;;12.60;97.30;;;;;;5310833;26;20550;-87
2024/04/12 07:03:36;;;;;;;2.77;2.57;;;12.70;97.30;;;;;;5323988;26;20555;-86
2024/04/12 07:06:07;;;;;;;3.33;2.53;;;12.90;97.30;;;;;;5325714;26;20466;-86
2024/04/12 07:08:33;;;;;;;1.63;1.33;;;13.10;97.30;;;;;;5318262;26;21042;-86
2024/04/12 07:11:07;;;;;;;2.27;2.07;;;13.20;97.30;;;;;;5343359;26;20497;-86
2024/04/12 07:13:33;;;;;;;10.47;1.30;;;13.30;97.30;;;;;;5331890;26;20652;-87
2024/04/12 07:16:01;;;;;;;1.20;1.10;;;13.40;97.30;;;;;;5330596;26;20531;-88
2024/04/12 07:18:29;;;;;;;2.33;2.13;;;13.60;97.30;;;;;;5324298;26;20988;-87
2024/04/12 07:21:14;;;;;;;2.40;1.40;;;13.70;95.70;;;;;;5335948;26;21134;-89
2024/04/12 07:23:48;;;;;;;1.43;1.33;;;13.80;95.70;;;;;;5335223;26;20522;-86
2024/04/12 07:26:24;;;;;;;2.17;1.80;;;14.00;95.90;;;;;;5313170;26;20928;-86
2024/04/12 07:28:59;;;;;;;3.20;1.43;;;14.10;95.30;;;;;;5344896;26;20542;-88
2024/04/12 07:31:25;;;;;;;4.50;2.13;;;14.30;95.30;;;;;;5323686;26;20956;-87
2024/04/12 07:33:59;;;;;;;1.40;1.30;;;14.40;94.60;;;;;;5322480;26;20473;-86
2024/04/12 07:36:25;;;;;;;3.67;1.63;;;14.50;93.70;;;;;;5310533;26;20920;-87
2024/04/12 07:38:54;;;;;;;1.03;0.93;;;14.80;94.20;;;;;;5323993;26;20526;-89
2024/04/12 07:41:24;;;;;;;1.10;1.00;;;14.90;93.40;;;;;;5327792;26;20607;-89
2024/04/12 07:43:49;;;;;;;4.33;1.70;;;15.00;94.20;;;;;;5334582;26;21019;-87
2024/04/12 07:49:07;;;;;;;2.37;1.67;;;15.40;93.90;;;;;;5294928;26;20239;-86
2024/04/12 07:51:49;;;;;;;2.13;1.60;;;15.60;93.40;;;;;;5328481;26;20465;-87
2024/04/12 07:54:17;;;;;;;1.10;1.00;;;15.70;92.20;;;;;;5314362;26;21020;-87
2024/04/12 07:57:07;;;;;;;3.20;2.03;;;15.80;92.40;;;;;;5331612;26;20475;-87
2024/04/12 08:00:09;;;;;;;1.70;1.60;;;15.90;90.90;;;;;;5310949;26;20699;-87
2024/04/12 08:02:36;;;;;;;9.93;1.90;;;16.00;91.00;;;;;;5178717;27;20540;-87
2024/04/12 08:05:14;;;;;;;1.10;1.00;;;16.10;90.50;;;;;;5179392;27;20522;-90
2024/04/12 08:07:49;;;;;;;3.13;2.93;;;16.10;90.00;;;;;;5179777;27;20738;-86
2024/04/12 08:13:50;;;;;;;1.10;1.00;;;16.30;89.10;;;;;;5202728;27;20474;-89
2024/04/12 08:16:27;;;;;;;2.40;2.20;;;16.50;89.10;;;;;;5179308;27;20485;-88
2024/04/12 08:22:27;;;;;;;3.03;2.07;;;16.60;88.00;;;;;;5052010;28;20486;-86
2024/04/12 08:24:59;;;;;;;1.83;1.73;;;16.90;89.30;;;;;;5021066;28;20961;-86
2024/04/12 08:27:30;;;;;;;2.73;1.90;;;17.10;89.30;;;;;;5109424;27;20527;-86
2024/04/12 08:29:58;;;;;;;3.53;1.13;;;17.10;87.70;;;;;;5174110;27;20528;-88
2024/04/12 08:32:38;;;;;;;1.47;1.33;;;17.20;88.10;;;;;;5323341;26;20510;-87
2024/04/12 08:35:07;;;;;;;2.53;1.70;;;17.40;88.50;;;;;;5325054;26;21023;-86
2024/04/12 08:37:38;;;;;;;7.03;1.43;;;17.50;87.50;;;;;;5308666;26;20483;-87
2024/04/12 08:40:40;;;;;;;5.77;1.80;;;17.60;88.70;;;;;;5323435;26;20474;-86
2024/04/12 08:43:09;;;;;;;2.63;1.80;;;17.80;88.50;;;;;;5307232;26;20470;-86
2024/04/12 08:45:47;;;;;;;1.80;1.10;;;17.90;88.20;;;;;;5323332;26;20495;-86
2024/04/12 08:48:48;;;;;;;4.00;2.67;;;18.00;87.90;;;;;;5324992;26;20470;-86
2024/04/12 08:52:06;;;;;;;;;;;;;;;;;;;;;
2024/04/12 08:58:10;;;;;;;1.17;1.10;;;18.10;89.30;;;;;;5139488;27;20635;-86
2024/04/12 09:01:07;;;;;;;3.27;1.90;;;18.30;91.00;;;;;;5101206;27;20609;-87
2024/04/12 09:04:20;;;;;;;1.53;1.43;;;18.40;90.80;;;;;;5106906;27;20556;-90
2024/04/12 09:06:48;;;;;;;2.20;1.53;;;18.60;90.60;;;;;;5071519;28;20673;-87
2024/04/12 09:10:19;;;;;;;1.77;1.57;;;18.80;90.10;;;;;;5056848;28;21043;-87
2024/04/12 09:12:47;;;;;;;1.37;1.27;;;18.90;90.20;;;;;;4923270;29;20503;-87
2024/04/12 09:15:31;;;;;;;2.20;2.03;;;19.00;90.20;;;;;;4935687;29;20562;-87
2024/04/12 09:18:26;;;;;;;1.67;1.57;;;19.00;89.00;;;;;;4948171;29;20578;-89
2024/04/12 09:21:23;;;;;;;1.53;1.53;;;19.10;90.30;;;;;;4934930;28;20494;-87
2024/04/12 09:24:09;;;;;;;1.87;1.60;;;19.20;89.80;;;;;;5019354;28;20570;-87
2024/04/12 09:29:55;;;;;;;1.70;1.33;;;19.20;89.80;;;;;;5108952;27;20489;-87
2024/04/12 09:35:39;;;;;;;4.50;2.57;;;19.30;90.20;;;;;;5276466;26;20509;-87
2024/04/12 09:38:52;;;;;;;1.50;1.40;;;19.50;89.10;;;;;;5327682;26;20947;-87
2024/04/12 09:45:27;;;;;;;1.40;1.30;;;19.50;89.60;;;;;;5199084;27;20540;-87
2024/04/12 10:38:56;;;;;;;1.10;1.00;;;20.80;86.90;;;;;;5267343;27;20575;-85
2024/04/12 10:41:22;;;;;;;1.77;1.17;;;20.80;85.10;;;;;;5258646;27;20535;-87
2024/04/12 10:43:47;;;;;;;1.33;1.23;;;20.80;85.50;;;;;;5265037;27;20511;-87
2024/04/12 10:46:13;;;;;;;1.67;1.43;;;20.70;85.40;;;;;;5283204;27;20233;-85
2024/04/12 10:48:41;;;;;;;1.63;0.90;;;20.70;85.40;;;;;;5248562;27;20728;-85
2024/04/12 10:51:08;;;;;;;1.23;1.00;;;20.70;85.40;;;;;;5244800;27;20590;-85
2024/04/12 10:53:38;;;;;;;2.20;1.10;;;21.00;85.70;;;;;;5261896;27;20881;-85
2024/04/12 10:56:07;;;;;;;0.93;0.83;;;21.20;84.30;;;;;;5276214;27;20510;-84
2024/04/12 10:58:33;;;;;;;1.10;0.90;;;21.00;84.90;;;;;;5246444;27;20942;-84
2024/04/12 11:01:04;;;;;;;0.93;0.87;;;20.90;84.10;;;;;;5288536;27;20519;-85
2024/04/12 11:03:29;;;;;;;2.47;0.97;;;21.10;84.60;;;;;;5246165;27;20464;-85
2024/04/12 11:06:10;;;;;;;1.13;1.03;;;21.00;84.60;;;;;;5290255;26;20578;-83
2024/04/12 11:08:36;;;;;;;1.77;1.10;;;21.10;83.60;;;;;;5246315;27;20237;-85
2024/04/12 11:11:19;;;;;;;1.93;1.83;;;21.10;83.30;;;;;;5244604;27;20520;-84
2024/04/12 11:13:52;;;;;;;1.40;1.30;;;21.20;83.90;;;;;;5291050;26;20585;-83
2024/04/12 11:33:14;;;;;;;1.50;1.10;;;21.80;80.70;;;;;;5238907;27;20710;-85
2024/04/12 11:35:41;;;;;;;1.10;1.00;;;21.70;81.60;;;;;;5259888;27;20922;-84
2024/04/12 11:38:13;;;;;;;1.53;0.90;;;21.60;81.50;;;;;;5268496;27;20458;-84
2024/04/12 11:40:40;;;;;;;1.10;1.00;;;21.70;81.30;;;;;;5228847;27;20480;-85
2024/04/12 11:43:06;;;;;;;1.67;1.10;;;21.70;81.00;;;;;;5244252;27;20521;-84
2024/04/12 11:45:34;;;;;;;1.00;0.90;;;21.70;81.50;;;;;;5275129;27;20479;-85
2024/04/12 11:48:00;;;;;;;2.60;1.33;;;21.80;80.80;;;;;;5245669;27;20480;-85
2024/04/12 11:50:26;;;;;;;1.63;1.40;;;21.70;80.90;;;;;;5244129;27;20987;-85
2024/04/12 11:52:54;;;;;;;1.00;0.90;;;21.70;81.00;;;;;;5233848;27;20267;-85
2024/04/12 11:55:21;;;;;;;2.10;1.93;;;21.60;80.70;;;;;;5247191;27;20951;-84
2024/04/12 11:57:46;;;;;;;1.27;1.20;;;21.50;81.30;;;;;;5257150;27;20536;-84
2024/04/12 12:00:15;;;;;;;2.00;1.33;;;21.60;81.40;;;;;;5287703;27;20527;-84
2024/04/12 12:02:43;;;;;;;1.33;0.90;;;21.80;81.10;;;;;;5242689;27;20244;-84
2024/04/12 12:05:16;;;;;;;1.73;1.00;;;21.90;80.10;;;;;;5258030;27;20895;-84
2024/04/12 12:07:44;;;;;;;1.20;1.10;;;22.30;82.30;;;;;;5241030;27;20480;-83
2024/04/12 12:10:10;;;;;;;2.40;0.90;;;22.80;80.70;;;;;;5281880;27;20963;-88
2024/04/12 12:12:37;;;;;;;0.93;0.90;;;23.20;79.30;;;;;;5254440;27;20480;-85
2024/04/12 12:15:06;;;;;;;2.50;1.67;;;23.20;78.50;;;;;;5269066;27;20571;-84
2024/04/12 12:17:32;;;;;;;1.00;1.00;;;23.30;78.40;;;;;;5255146;27;20528;-85
2024/04/12 12:19:57;;;;;;;0.93;0.87;;;23.40;78.00;;;;;;5252863;27;20477;-84
2024/04/12 12:22:23;;;;;;;1.00;0.90;;;23.00;78.40;;;;;;5254065;27;20244;-84
2024/04/12 12:24:49;;;;;;;1.30;1.10;;;23.20;80.40;;;;;;5254816;27;20240;-85
2024/04/12 12:27:19;;;;;;;1.03;1.00;;;23.20;78.10;;;;;;5267884;27;20238;-83
2024/04/12 12:29:48;;;;;;;1.33;0.83;;;23.50;78.50;;;;;;5253454;27;20241;-84
2024/04/12 12:32:14;;;;;;;1.00;0.90;;;23.60;78.50;;;;;;5282929;27;20460;-84
2024/04/12 12:34:43;;;;;;;8.47;1.57;;;23.60;77.40;;;;;;5244437;27;20533;-84
2024/04/12 12:37:09;;;;;;;0.60;0.60;;;23.80;77.50;;;;;;5270499;27;20494;-84
2024/04/12 12:39:37;;;;;;;2.33;1.60;;;23.80;77.20;;;;;;5266720;27;20480;-84
2024/04/12 12:42:04;;;;;;;0.90;0.80;;;23.70;77.70;;;;;;5263797;27;20528;-84
2024/04/12 12:44:30;;;;;;;2.80;1.40;;;23.90;78.20;;;;;;5248852;27;20477;-85
2024/04/12 12:46:59;;;;;;;5.03;1.10;;;24.20;79.10;;;;;;5284417;27;20560;-83
2024/04/12 12:49:25;;;;;;;1.53;1.10;;;24.00;76.70;;;;;;5262442;27;20773;-84
2024/04/12 12:51:51;;;;;;;8.63;1.40;;;23.90;77.60;;;;;;5243361;27;20476;-84
2024/04/12 12:54:18;;;;;;;4.90;1.00;;;24.00;78.10;;;;;;5258920;27;20531;-83
2024/04/12 12:56:46;;;;;;;1.00;0.90;;;24.20;77.50;;;;;;5288832;27;20516;-85
2024/04/12 12:59:12;;;;;;;19.33;1.43;;;24.40;76.90;;;;;;5245216;27;20588;-85
2024/04/12 13:01:41;;;;;;;0.80;0.70;;;24.60;75.50;;;;;;5248426;27;20889;-84
2024/04/12 13:04:07;;;;;;;1.00;0.90;;;24.60;76.00;;;;;;5294843;27;20579;-84
2024/04/12 13:06:34;;;;;;;1.03;0.93;;;24.60;75.40;;;;;;5276499;27;20472;-83
2024/04/12 13:09:01;;;;;;;1.33;1.20;;;24.50;75.80;;;;;;5275187;27;20525;-84
2024/04/12 13:11:26;;;;;;;0.93;0.83;;;24.60;75.40;;;;;;5275332;27;20521;-84
2024/04/12 13:13:52;;;;;;;0.87;0.77;;;24.90;75.20;;;;;;5295483;27;20470;-84
2024/04/12 13:16:18;;;;;;;1.17;1.00;;;24.80;74.70;;;;;;5295036;27;20236;-84
2024/04/12 13:18:45;;;;;;;1.57;0.90;;;24.60;74.70;;;;;;5259842;27;20580;-84
2024/04/12 13:21:11;;;;;;;0.90;0.90;;;24.30;75.50;;;;;;5256384;27;20652;-84
2024/04/12 13:23:37;;;;;;;1.40;1.30;;;24.40;75.50;;;;;;5274585;27;20474;-84
2024/04/12 13:26:06;;;;;;;0.90;0.90;;;24.50;75.90;;;;;;5285140;27;20522;-84
2024/04/12 13:28:35;;;;;;;4.17;1.40;;;24.80;76.30;;;;;;5247612;27;20581;-85
2024/04/12 13:31:04;;;;;;;0.80;0.70;;;24.80;75.00;;;;;;5243560;27;20472;-84
2024/04/12 13:33:30;;;;;;;0.90;0.90;;;24.90;74.70;;;;;;5247174;27;20519;-84
2024/04/12 13:35:59;;;;;;;0.93;0.87;;;25.30;74.50;;;;;;5285712;27;20468;-85
2024/04/12 13:38:25;;;;;;;0.90;0.80;;;25.30;74.30;;;;;;5258634;27;20245;-83
2024/04/12 13:40:54;;;;;;;1.07;1.00;;;24.90;73.60;;;;;;5286670;27;21123;-84
2024/04/12 13:43:24;;;;;;;1.20;0.97;;;25.00;75.00;;;;;;5258690;27;20735;-83
2024/04/12 13:51:19;;;;;;;0.80;0.70;;;25.20;73.60;;;;;;5282851;27;20708;-85
2024/04/12 13:53:46;;;;;;;2.33;2.13;;;25.10;74.90;;;;;;5276951;27;20463;-83
2024/04/12 13:58:58;;;;;;;1.10;1.00;;;25.00;74.80;;;;;;5287959;27;20890;-85
2024/04/12 14:01:29;;;;;;;0.80;0.80;;;24.80;73.80;;;;;;5256110;27;20769;-83
2024/04/12 14:04:04;;;;;;;0.80;0.70;;;24.80;73.40;;;;;;5257816;27;20524;-84
2024/04/12 14:06:34;;;;;;;2.63;1.03;;;24.80;74.50;;;;;;5243781;27;20476;-84
2024/04/12 14:09:01;;;;;;;1.10;1.00;;;24.50;75.40;;;;;;5244668;27;20604;-84
2024/04/12 14:11:27;;;;;;;2.30;1.00;;;24.70;76.20;;;;;;5242046;27;20527;-84
2024/04/12 14:13:53;;;;;;;0.90;0.80;;;25.00;75.40;;;;;;5281049;27;20474;-83
2024/04/12 14:16:20;;;;;;;8.80;1.50;;;25.20;75.60;;;;;;5263498;27;20534;-84
2024/04/12 14:18:49;;;;;;;1.97;1.23;;;25.10;73.80;;;;;;5274023;27;20468;-83
2024/04/12 14:21:17;;;;;;;1.00;0.90;;;24.60;74.80;;;;;;5271745;27;20461;-83
2024/04/12 14:23:44;;;;;;;1.97;1.00;;;24.60;75.60;;;;;;5287744;27;20468;-83
2024/04/12 14:26:10;;;;;;;1.03;0.93;;;24.60;75.40;;;;;;5287763;26;20468;-84
2024/04/12 14:28:40;;;;;;;4.53;2.50;;;24.80;75.30;;;;;;5273376;27;21056;-83
2024/04/12 14:31:07;;;;;;;1.43;1.23;;;24.80;74.50;;;;;;5242099;27;20472;-84
2024/04/12 14:33:33;;;;;;;0.90;0.80;;;25.00;74.40;;;;;;5243186;27;20468;-83
2024/04/12 14:36:02;;;;;;;0.70;0.70;;;24.80;74.90;;;;;;5243615;27;20528;-83
2024/04/12 14:38:29;;;;;;;1.13;1.13;;;24.60;75.20;;;;;;5287101;27;20455;-84
2024/04/12 14:41:03;;;;;;;1.63;1.10;;;24.60;75.10;;;;;;5249208;27;20519;-84
2024/04/12 14:43:29;;;;;;;1.00;0.90;;;24.20;76.00;;;;;;5261886;27;20577;-83
2024/04/12 14:45:54;;;;;;;1.00;0.90;;;24.00;76.90;;;;;;5287176;26;20532;-85
2024/04/12 14:48:20;;;;;;;1.03;0.90;;;24.00;76.20;;;;;;5257022;27;20519;-84
2024/04/12 14:50:49;;;;;;;1.00;0.90;;;24.00;76.10;;;;;;5285274;27;20225;-84
2024/04/12 14:53:15;;;;;;;7.30;1.00;;;24.30;76.00;;;;;;5272701;27;20272;-85
2024/04/12 14:55:41;;;;;;;1.33;0.90;;;24.40;75.10;;;;;;5286869;26;20470;-83
2024/04/12 14:58:07;;;;;;;1.17;0.87;;;24.60;75.10;;;;;;5252859;27;20553;-82
2024/04/12 15:00:33;;;;;;;0.97;0.87;;;24.80;74.10;;;;;;5276253;27;20859;-85
2024/04/12 15:49:29;;;;;;;1.50;1.10;;;23.20;78.30;;;;;;5287327;27;20593;-84
2024/04/12 15:51:56;;;;;;;1.20;0.90;;;23.10;78.70;;;;;;5274633;27;20476;-83
2024/04/12 15:54:26;;;;;;;0.77;0.73;;;23.00;78.80;;;;;;5288106;27;20467;-84
2024/04/12 16:10:48;;;;;;;32.03;1.63;;;22.30;81.00;;;;;;5303925;27;20516;-83
2024/04/12 16:13:16;;;;;;;1.10;1.00;;;22.20;81.30;;;;;;5260986;27;20573;-84
2024/04/12 16:15:41;;;;;;;0.70;0.70;;;22.30;81.50;;;;;;5339086;21;20489;-62
2024/04/12 16:18:07;;;;;;;1.77;1.43;;;22.30;81.50;;;;;;5329197;26;20509;-61
2024/04/12 16:20:34;;;;;;;2.50;1.80;;;22.20;81.60;;;;;;5326355;26;20759;-60
2024/04/12 16:22:59;;;;;;;1.33;1.27;;;22.10;81.90;;;;;;5313190;26;20353;-61
2024/04/12 16:25:25;;;;;;;1.10;1.00;;;22.10;82.20;;;;;;5313522;26;20994;-61
2024/04/12 16:27:53;;;;;;;1.30;1.27;;;22.10;82.60;;;;;;5336084;26;20232;-60
2024/04/12 16:30:19;;;;;;;2.47;1.40;;;22.00;82.40;;;;;;5338816;26;20265;-60
2024/04/12 16:32:44;;;;;;;1.00;0.90;;;22.00;83.10;;;;;;5322992;26;20987;-60
2024/04/12 16:35:10;;;;;;;1.23;1.13;;;21.90;83.10;;;;;;5313503;26;20235;-60
2024/04/12 16:37:36;;;;;;;1.17;1.10;;;21.80;83.40;;;;;;5331146;26;20242;-60
2024/04/12 16:40:02;;;;;;;1.10;1.00;;;21.80;83.30;;;;;;5340512;26;20546;-60
2024/04/12 16:42:28;;;;;;;2.50;1.60;;;21.70;83.70;;;;;;5340338;26;20281;-62
2024/04/12 16:44:53;;;;;;;1.30;1.20;;;21.60;83.60;;;;;;5324891;26;20250;-59
2024/04/12 16:47:20;;;;;;;0.80;0.80;;;21.50;84.30;;;;;;5326437;26;20270;-60
2024/04/12 16:49:46;;;;;;;1.67;1.60;;;21.50;84.60;;;;;;5312039;26;20667;-60
2024/04/12 16:52:11;;;;;;;1.20;1.10;;;21.50;84.60;;;;;;5315097;26;21018;-60
2024/04/12 16:54:37;;;;;;;1.10;1.00;;;21.50;85.10;;;;;;5321225;26;20228;-59
2024/04/12 16:57:05;;;;;;;5.90;1.03;;;21.50;85.70;;;;;;5340258;26;20227;-62
2024/04/12 16:59:32;;;;;;;1.40;1.30;;;21.50;86.40;;;;;;5327008;26;20677;-59
2024/04/12 17:01:58;;;;;;;3.03;1.73;;;21.50;86.70;;;;;;5303708;26;20559;-59
2024/04/12 17:04:24;;;;;;;1.57;1.47;;;21.50;86.90;;;;;;5317654;26;20445;-60
2024/04/12 17:06:49;;;;;;;1.90;1.30;;;21.50;87.50;;;;;;5336218;26;20238;-60
2024/04/12 17:09:19;;;;;;;1.60;1.50;;;21.40;87.30;;;;;;5322324;26;20720;-59
2024/04/12 17:11:45;;;;;;;2.27;1.90;;;21.30;87.40;;;;;;5320082;26;20243;-59
2024/04/12 17:14:10;;;;;;;1.37;1.10;;;21.20;87.50;;;;;;5340046;26;21089;-60
2024/04/12 17:16:36;;;;;;;1.20;1.10;;;21.10;87.40;;;;;;5339619;26;20239;-63
2024/04/12 17:19:02;;;;;;;2.93;1.27;;;21.00;87.80;;;;;;5319028;26;20728;-62
2024/04/12 17:21:27;;;;;;;1.50;1.50;;;20.90;88.00;;;;;;5331691;26;20719;-62
2024/04/12 17:23:54;;;;;;;4.00;1.63;;;20.90;88.20;;;;;;5337068;26;21092;-59
2024/04/12 17:26:19;;;;;;;1.90;1.57;;;20.80;88.10;;;;;;5339422;26;20269;-62
2024/04/12 17:28:45;;;;;;;8.90;1.13;;;20.70;88.60;;;;;;5338911;26;20481;-61
2024/04/12 17:31:10;;;;;;;15.73;2.77;;;20.70;88.80;;;;;;5337596;26;20285;-62
2024/04/12 17:33:36;;;;;;;0.90;0.90;;;20.50;89.00;;;;;;5337600;26;20302;-61
2024/04/12 17:36:06;;;;;;;1.20;1.10;;;20.40;89.30;;;;;;5339631;26;20748;-62
2024/04/12 17:38:34;;;;;;;3.43;2.23;;;20.30;89.50;;;;;;5339731;26;20281;-62
2024/04/12 17:41:00;;;;;;;1.10;1.00;;;20.20;89.70;;;;;;5331754;26;20535;-62
2024/04/12 17:43:25;;;;;;;1.53;1.00;;;20.20;90.10;;;;;;5330636;26;20513;-62
2024/04/12 17:45:51;;;;;;;1.27;1.17;;;20.10;90.30;;;;;;5336951;26;20269;-62
2024/04/12 17:48:16;;;;;;;1.20;1.20;;;20.00;90.60;;;;;;5337281;26;20332;-62
2024/04/12 17:50:51;;;;;;;1.50;1.40;;;19.90;90.80;;;;;;5337730;26;20235;-62
2024/04/12 17:53:17;;;;;;;1.60;1.50;;;19.80;91.30;;;;;;5328229;26;20281;-62
2024/04/12 17:55:42;;;;;;;1.60;1.40;;;19.80;91.50;;;;;;5323473;26;20485;-62
2024/04/12 17:58:09;;;;;;;2.90;1.27;;;19.70;91.60;;;;;;5325892;26;20298;-61
2024/04/12 18:00:34;;;;;;;2.00;1.40;;;19.70;91.70;;;;;;5339055;26;20243;-61
2024/04/12 18:03:00;;;;;;;1.87;1.77;;;19.60;92.00;;;;;;5333544;26;20595;-61
2024/04/12 18:05:26;;;;;;;1.70;1.40;;;19.50;92.20;;;;;;5328237;26;20293;-61
2024/04/12 18:07:51;;;;;;;1.40;1.30;;;19.40;92.50;;;;;;5338414;26;20727;-61
2024/04/12 18:10:17;;;;;;;2.30;1.63;;;19.40;92.70;;;;;;5338704;26;20570;-61
2024/04/12 18:12:42;;;;;;;1.30;1.23;;;19.30;93.10;;;;;;5317336;26;20806;-62
2024/04/12 18:15:08;;;;;;;2.20;1.70;;;19.20;93.30;;;;;;5339011;26;20247;-61
2024/04/12 18:17:33;;;;;;;1.60;1.50;;;19.10;93.70;;;;;;5338771;26;20235;-61
2024/04/12 18:20:01;;;;;;;1.40;1.30;;;19.00;94.00;;;;;;5336594;26;20258;-62
2024/04/12 18:22:27;;;;;;;7.60;1.57;;;19.00;94.10;;;;;;5336973;26;20781;-61
2024/04/12 18:24:52;;;;;;;1.00;0.90;;;18.90;94.30;;;;;;5338188;26;20525;-61
2024/04/12 18:27:18;;;;;;;2.93;1.60;;;18.90;94.30;;;;;;5338911;26;20230;-61
2024/04/12 18:29:47;;;;;;;1.07;0.97;;;18.80;94.50;;;;;;5317246;26;20248;-61
2024/04/12 18:32:13;;;;;;;1.17;1.07;;;18.80;94.60;;;;;;5338535;26;20278;-62
2024/04/12 18:34:38;;;;;;;11.33;2.40;;;18.70;94.60;;;;;;5338279;26;20496;-62
2024/04/12 18:45:19;;;;;;;1.30;1.00;;;18.50;94.80;;;;;;5330351;26;20598;-62
2024/04/12 18:47:46;;;;;;;2.00;1.27;;;18.50;94.90;;;;;;5341424;26;20987;-61
2024/04/12 18:50:12;;;;;;;1.80;1.47;;;18.30;95.10;;;;;;5320161;26;20278;-62
2024/04/12 18:52:38;;;;;;;1.17;1.07;;;18.30;95.30;;;;;;5319889;26;20462;-61
2024/04/12 18:55:04;;;;;;;2.20;1.07;;;18.20;95.60;;;;;;5340436;26;20465;-61
2024/04/12 18:57:30;;;;;;;9.60;2.73;;;18.10;95.80;;;;;;5325169;26;21000;-62
2024/04/12 18:59:56;;;;;;;1.07;0.93;;;18.00;96.00;;;;;;5325486;26;20563;-61
2024/04/12 19:02:22;;;;;;;1.47;1.43;;;18.00;96.20;;;;;;5341821;26;20299;-61
2024/04/12 19:04:47;;;;;;;1.70;1.03;;;17.90;96.30;;;;;;5326799;26;21130;-61
2024/04/12 19:07:13;;;;;;;3.53;2.23;;;17.80;96.40;;;;;;5341755;26;20457;-61
2024/04/12 19:09:39;;;;;;;3.90;2.17;;;17.80;96.50;;;;;;5327294;26;20227;-62
2024/04/12 19:12:08;;;;;;;2.43;2.27;;;17.70;96.80;;;;;;5336181;26;20761;-61
2024/04/12 19:14:34;;;;;;;1.80;1.20;;;17.60;97.00;;;;;;5318799;26;20465;-61
2024/04/12 19:17:00;;;;;;;2.30;2.10;;;17.60;97.20;;;;;;5337343;26;20525;-61
2024/04/12 19:19:25;;;;;;;1.20;1.13;;;17.50;97.30;;;;;;5329396;26;20242;-62
2024/04/12 19:21:51;;;;;;;1.13;1.03;;;17.50;97.30;;;;;;5325115;26;20232;-62
2024/04/12 19:24:16;;;;;;;1.77;1.40;;;17.40;97.30;;;;;;5328523;26;20223;-62
2024/04/12 19:26:42;;;;;;;1.50;1.40;;;17.40;97.30;;;;;;5327157;26;20228;-61
2024/04/12 19:29:07;;;;;;;4.90;1.87;;;17.40;97.30;;;;;;5325974;26;20274;-62
2024/04/12 19:31:34;;;;;;;1.10;1.00;;;17.40;97.30;;;;;;5340923;26;20231;-62
2024/04/12 19:34:00;;;;;;;2.27;1.13;;;17.40;97.30;;;;;;5321589;26;20426;-61
2024/04/12 19:36:25;;;;;;;1.27;1.17;;;17.30;97.30;;;;;;5316393;26;20516;-61
2024/04/12 19:38:54;;;;;;;2.27;1.57;;;17.30;97.30;;;;;;5340662;26;20517;-61
2024/04/12 19:41:20;;;;;;;1.13;1.10;;;17.20;97.30;;;;;;5340928;26;20344;-61
2024/04/12 19:43:50;;;;;;;1.00;0.90;;;17.20;97.30;;;;;;5341132;26;20583;-62
2024/04/12 19:46:16;;;;;;;1.77;1.50;;;17.20;97.30;;;;;;5340035;26;20509;-61
2024/04/12 19:48:42;;;;;;;3.73;1.83;;;17.10;97.30;;;;;;5338771;26;20473;-61
2024/04/12 19:51:08;;;;;;;1.10;1.00;;;17.10;97.30;;;;;;5310282;26;20348;-61